Time;durP1;ratioP1;P1;durP2;ratioP2;P2;SDS_P1;SDS_P2;PMS_P1;PMS_P2;Temp;Humidity;BMP_temperature;BMP_pressure;BME280_temperature;BME280_humidity;BME280_pressure;Samples;Min_cycle;Max_cycle;Signal;HPM_P1;HPM_P2
2023/10/23 00:01:54;;;;;;;9.87;5.07;;;10.70;24.90;;;;;;5020271;28;20485;-67
2023/10/23 00:04:21;;;;;;;9.27;6.17;;;10.70;25.20;;;;;;5022208;28;20498;-66
2023/10/23 00:06:48;;;;;;;10.40;6.10;;;10.60;25.00;;;;;;5024592;28;21035;-67
2023/10/23 00:09:14;;;;;;;8.40;5.43;;;10.60;25.10;;;;;;5023694;28;20459;-67
2023/10/23 00:11:41;;;;;;;10.33;5.63;;;10.60;25.20;;;;;;5024096;28;21172;-68
2023/10/23 00:14:09;;;;;;;7.97;5.40;;;10.60;25.30;;;;;;5020822;28;20497;-68
2023/10/23 00:16:36;;;;;;;9.43;6.07;;;10.60;25.80;;;;;;5027354;28;20876;-67
2023/10/23 00:19:03;;;;;;;8.57;5.27;;;10.60;25.70;;;;;;5022954;28;20463;-67
2023/10/23 00:21:30;;;;;;;10.97;7.93;;;10.60;25.90;;;;;;5025249;28;20509;-67
2023/10/23 00:23:56;;;;;;;8.97;6.00;;;10.70;26.20;;;;;;5025599;28;20467;-67
2023/10/23 00:26:24;;;;;;;8.53;5.77;;;10.70;25.90;;;;;;5025593;28;20463;-67
2023/10/23 00:28:50;;;;;;;10.40;7.20;;;10.60;26.20;;;;;;5020263;28;20486;-67
2023/10/23 00:31:18;;;;;;;8.93;5.73;;;10.60;25.70;;;;;;5021576;28;21021;-66
2023/10/23 00:33:45;;;;;;;8.17;5.50;;;10.60;25.70;;;;;;5018043;28;20463;-67
2023/10/23 00:36:12;;;;;;;8.33;5.30;;;10.60;25.40;;;;;;5023954;28;20467;-67
2023/10/23 00:38:38;;;;;;;6.40;4.40;;;10.60;25.20;;;;;;5019940;28;20459;-67
2023/10/23 00:41:05;;;;;;;9.77;6.47;;;10.60;25.00;;;;;;5024002;28;20463;-67
2023/10/23 00:43:34;;;;;;;8.70;6.70;;;10.70;24.80;;;;;;5021450;28;20470;-68
2023/10/23 00:46:02;;;;;;;9.33;6.70;;;10.70;25.90;;;;;;5026827;28;20565;-66
2023/10/23 00:48:31;;;;;;;8.43;5.67;;;10.70;25.80;;;;;;5019914;28;20483;-67
2023/10/23 00:50:59;;;;;;;10.13;6.13;;;10.70;25.70;;;;;;5016759;28;20470;-67
2023/10/23 00:53:30;;;;;;;9.80;6.27;;;10.70;25.70;;;;;;5021029;28;20935;-68
2023/10/23 00:55:58;;;;;;;8.20;6.10;;;10.60;25.60;;;;;;5026222;28;20483;-67
2023/10/23 00:58:26;;;;;;;7.70;4.57;;;10.60;25.50;;;;;;5026070;28;20474;-67
2023/10/23 01:00:54;;;;;;;7.20;4.40;;;10.60;25.50;;;;;;5024195;28;20475;-67
2023/10/23 01:03:21;;;;;;;6.87;4.20;;;10.60;25.40;;;;;;5025220;28;20466;-67
2023/10/23 01:05:49;;;;;;;6.90;3.90;;;10.50;25.10;;;;;;5028088;28;20482;-67
2023/10/23 01:08:16;;;;;;;6.57;4.70;;;10.40;24.90;;;;;;5028659;28;20467;-67
2023/10/23 01:10:43;;;;;;;8.77;4.50;;;10.40;24.60;;;;;;5027899;28;20783;-67
2023/10/23 01:13:10;;;;;;;8.00;5.20;;;10.30;24.50;;;;;;5027113;28;20466;-68
2023/10/23 01:15:38;;;;;;;8.33;4.70;;;10.30;24.50;;;;;;5027657;28;20489;-67
2023/10/23 01:18:05;;;;;;;6.70;4.77;;;10.30;24.40;;;;;;5026757;28;20462;-67
2023/10/23 01:20:32;;;;;;;7.70;4.23;;;10.20;24.40;;;;;;5025794;28;20471;-68
2023/10/23 01:23:03;;;;;;;7.00;4.67;;;10.10;24.60;;;;;;5026685;28;20832;-68
2023/10/23 01:25:31;;;;;;;7.23;5.60;;;10.00;24.80;;;;;;5028223;28;20540;-68
2023/10/23 01:27:57;;;;;;;8.50;5.90;;;10.00;25.00;;;;;;5026917;28;20463;-67
2023/10/23 01:30:24;;;;;;;6.70;4.43;;;9.90;24.90;;;;;;5026380;28;20939;-67
2023/10/23 01:32:51;;;;;;;8.53;5.33;;;9.90;25.20;;;;;;5023165;28;20935;-67
2023/10/23 01:35:18;;;;;;;8.23;4.87;;;9.80;25.10;;;;;;5028492;28;20673;-68
2023/10/23 01:37:45;;;;;;;7.73;4.40;;;9.70;25.50;;;;;;5024201;28;20466;-68
2023/10/23 01:40:12;;;;;;;8.17;4.97;;;9.70;25.50;;;;;;5027437;28;20462;-68
2023/10/23 01:42:41;;;;;;;7.67;4.50;;;9.70;25.70;;;;;;5026645;28;20467;-67
2023/10/23 01:45:08;;;;;;;9.97;5.00;;;9.70;26.70;;;;;;5025030;28;20484;-68
2023/10/23 01:47:35;;;;;;;6.93;4.20;;;9.70;25.90;;;;;;5022100;28;20470;-68
2023/10/23 01:50:02;;;;;;;10.73;5.50;;;9.70;25.90;;;;;;5025443;28;20470;-67
2023/10/23 01:52:29;;;;;;;8.03;5.00;;;9.60;26.10;;;;;;5027180;28;20466;-66
2023/10/23 01:54:55;;;;;;;8.03;4.80;;;9.60;26.20;;;;;;5027196;28;20490;-67
2023/10/23 01:57:22;;;;;;;8.50;4.50;;;9.50;26.10;;;;;;5029648;28;20459;-66
2023/10/23 01:59:50;;;;;;;8.60;4.90;;;9.50;26.20;;;;;;5027005;28;20481;-67
2023/10/23 02:02:17;;;;;;;7.53;4.00;;;9.50;26.10;;;;;;5024244;28;21081;-67
2023/10/23 02:04:43;;;;;;;11.37;4.80;;;9.50;26.10;;;;;;5027465;28;20483;-67
2023/10/23 02:07:10;;;;;;;7.63;4.70;;;9.50;26.20;;;;;;5023034;28;20940;-67
2023/10/23 02:09:37;;;;;;;10.20;4.53;;;9.50;25.90;;;;;;5027846;28;20467;-67
2023/10/23 02:12:04;;;;;;;7.70;4.60;;;9.50;26.50;;;;;;5026017;28;20464;-67
2023/10/23 02:14:31;;;;;;;8.93;5.47;;;9.50;26.20;;;;;;5026622;28;20482;-67
2023/10/23 02:16:59;;;;;;;6.83;4.20;;;9.40;26.20;;;;;;5026444;28;20469;-67
2023/10/23 02:19:26;;;;;;;8.80;4.30;;;9.40;26.20;;;;;;5026126;28;20840;-66
2023/10/23 02:21:53;;;;;;;7.77;4.40;;;9.40;26.30;;;;;;5025418;28;20482;-67
2023/10/23 02:24:20;;;;;;;9.03;4.00;;;9.40;26.30;;;;;;5029436;28;21096;-67
2023/10/23 02:26:47;;;;;;;8.03;4.63;;;9.50;26.50;;;;;;5028818;28;20459;-66
2023/10/23 02:29:14;;;;;;;7.10;4.57;;;9.40;26.40;;;;;;5024932;28;20475;-67
2023/10/23 02:31:41;;;;;;;8.80;4.87;;;9.40;26.90;;;;;;5025455;28;20471;-67
2023/10/23 02:34:09;;;;;;;8.93;4.93;;;9.40;27.30;;;;;;5027132;28;20479;-67
2023/10/23 02:36:35;;;;;;;9.90;5.27;;;9.30;27.50;;;;;;5026385;28;20491;-68
2023/10/23 02:39:02;;;;;;;7.70;5.00;;;9.30;27.40;;;;;;5022927;28;20464;-67
2023/10/23 02:41:30;;;;;;;10.53;4.53;;;9.30;27.70;;;;;;5025281;28;20852;-67
2023/10/23 02:43:57;;;;;;;18.07;5.37;;;9.30;27.50;;;;;;5017710;28;20797;-68
2023/10/23 02:46:24;;;;;;;6.77;4.57;;;9.40;27.20;;;;;;5025765;28;20509;-67
2023/10/23 02:48:51;;;;;;;7.80;5.03;;;9.40;27.00;;;;;;5023278;28;20486;-67
2023/10/23 02:51:19;;;;;;;10.23;5.00;;;9.40;27.10;;;;;;5024748;28;20484;-67
2023/10/23 02:53:46;;;;;;;7.43;4.23;;;9.40;27.10;;;;;;5025574;28;20463;-66
2023/10/23 02:56:13;;;;;;;9.23;4.67;;;9.50;27.30;;;;;;5027529;28;20486;-66
2023/10/23 02:58:40;;;;;;;8.67;4.90;;;9.50;27.00;;;;;;5027493;28;20802;-66
2023/10/23 03:01:15;;;;;;;9.00;5.10;;;9.50;27.20;;;;;;5024380;28;20494;-67
2023/10/23 03:03:42;;;;;;;7.43;4.30;;;9.50;27.00;;;;;;5024892;28;20464;-66
2023/10/23 03:06:08;;;;;;;8.30;4.87;;;9.50;26.70;;;;;;5023877;28;20911;-67
2023/10/23 03:08:37;;;;;;;9.63;5.90;;;9.60;26.90;;;;;;5026257;28;20978;-67
2023/10/23 03:11:04;;;;;;;9.30;5.27;;;9.60;26.90;;;;;;5021517;28;20467;-68
2023/10/23 03:13:30;;;;;;;7.70;4.73;;;9.60;27.30;;;;;;5025870;28;20482;-67
2023/10/23 03:15:57;;;;;;;9.33;4.97;;;9.50;27.80;;;;;;5024039;28;20487;-67
2023/10/23 03:18:24;;;;;;;9.80;5.30;;;9.50;28.20;;;;;;5021910;28;20459;-67
2023/10/23 03:20:50;;;;;;;8.33;5.23;;;9.50;27.50;;;;;;5021134;28;20464;-67
2023/10/23 03:23:17;;;;;;;7.33;4.93;;;9.50;27.50;;;;;;5020710;28;21844;-68
2023/10/23 03:25:47;;;;;;;8.17;5.63;;;9.50;27.70;;;;;;5019213;28;20479;-68
2023/10/23 03:28:14;;;;;;;9.20;7.50;;;9.50;27.30;;;;;;5025424;28;20474;-67
2023/10/23 03:30:41;;;;;;;8.50;5.00;;;9.40;27.40;;;;;;5020580;28;20483;-67
2023/10/23 03:33:07;;;;;;;8.83;4.73;;;9.40;27.30;;;;;;5022087;28;20896;-67
2023/10/23 03:35:35;;;;;;;9.07;4.20;;;9.30;27.50;;;;;;5024854;28;20494;-67
2023/10/23 03:38:02;;;;;;;6.47;3.73;;;9.30;27.40;;;;;;5023156;28;20463;-66
2023/10/23 03:40:28;;;;;;;9.23;4.27;;;9.30;27.30;;;;;;5023725;28;20467;-67
2023/10/23 03:42:56;;;;;;;8.83;4.17;;;9.20;27.00;;;;;;5023808;28;20459;-67
2023/10/23 03:45:23;;;;;;;13.00;5.07;;;9.20;27.00;;;;;;5021388;28;20517;-67
2023/10/23 03:47:50;;;;;;;7.87;4.80;;;9.20;27.00;;;;;;5024589;28;20472;-67
2023/10/23 03:50:17;;;;;;;9.07;5.47;;;9.20;27.10;;;;;;5024261;28;20841;-66
2023/10/23 03:52:43;;;;;;;14.70;5.60;;;9.10;27.10;;;;;;5018782;28;20466;-67
2023/10/23 03:55:10;;;;;;;9.27;6.70;;;9.10;27.20;;;;;;5019429;28;20503;-68
2023/10/23 03:57:37;;;;;;;7.80;5.40;;;9.00;27.40;;;;;;5026035;28;20463;-67
2023/10/23 04:00:06;;;;;;;7.37;4.80;;;9.00;27.50;;;;;;5026154;28;20570;-67
2023/10/23 04:02:33;;;;;;;7.60;5.00;;;8.90;27.60;;;;;;5052454;22;20486;-65
2023/10/23 04:05:00;;;;;;;16.60;7.50;;;8.90;27.70;;;;;;5048247;28;20481;-65
2023/10/23 04:07:26;;;;;;;31.13;7.83;;;8.80;27.90;;;;;;5069594;28;20579;-65
2023/10/23 04:09:53;;;;;;;29.00;7.23;;;8.80;28.00;;;;;;5068307;28;20468;-65
2023/10/23 04:12:20;;;;;;;12.97;7.47;;;8.70;28.30;;;;;;5062437;28;20949;-66
2023/10/23 04:14:47;;;;;;;35.20;8.43;;;8.70;28.50;;;;;;5069617;28;20477;-65
2023/10/23 04:17:15;;;;;;;14.00;5.60;;;8.70;28.50;;;;;;5069049;28;20558;-65
2023/10/23 04:19:41;;;;;;;12.50;6.63;;;8.70;28.50;;;;;;5063868;28;20468;-65
2023/10/23 04:22:08;;;;;;;8.23;5.30;;;8.70;28.60;;;;;;5068422;28;20464;-65
2023/10/23 04:24:35;;;;;;;8.60;5.40;;;8.70;28.60;;;;;;5066921;28;20473;-65
2023/10/23 04:27:01;;;;;;;9.27;6.50;;;8.60;28.40;;;;;;5061828;28;20457;-65
2023/10/23 04:29:28;;;;;;;16.43;6.33;;;8.60;28.40;;;;;;5065400;28;20460;-65
2023/10/23 04:31:55;;;;;;;14.57;6.40;;;8.60;28.70;;;;;;5060085;28;20473;-65
2023/10/23 04:34:23;;;;;;;11.40;5.77;;;8.50;29.00;;;;;;5064813;28;20477;-65
2023/10/23 04:36:49;;;;;;;15.20;6.37;;;8.60;28.80;;;;;;5062808;28;20496;-65
2023/10/23 04:39:16;;;;;;;26.37;6.40;;;8.50;29.00;;;;;;5061672;28;20468;-65
2023/10/23 04:41:43;;;;;;;9.90;6.13;;;8.50;29.40;;;;;;5068699;28;20465;-65
2023/10/23 04:44:10;;;;;;;36.00;7.33;;;8.40;29.40;;;;;;5068958;28;20477;-65
2023/10/23 04:46:36;;;;;;;24.90;6.40;;;8.40;29.20;;;;;;5066844;28;20456;-70
2023/10/23 04:49:03;;;;;;;37.37;5.93;;;8.40;29.20;;;;;;5069505;28;20448;-65
2023/10/23 04:51:33;;;;;;;7.03;4.60;;;8.30;29.40;;;;;;5066541;28;20557;-65
2023/10/23 04:54:00;;;;;;;8.97;5.60;;;8.30;29.60;;;;;;5064746;28;20485;-65
2023/10/23 04:56:26;;;;;;;7.90;4.73;;;8.30;29.60;;;;;;5065656;28;20473;-65
2023/10/23 04:58:53;;;;;;;6.30;4.60;;;8.20;29.20;;;;;;5066863;28;20469;-65
2023/10/23 05:01:20;;;;;;;7.80;4.70;;;8.20;29.00;;;;;;5066864;28;20470;-65
2023/10/23 05:03:47;;;;;;;9.30;4.53;;;8.20;28.90;;;;;;5062876;28;21089;-65
2023/10/23 05:06:14;;;;;;;7.87;4.00;;;8.20;29.10;;;;;;5063319;28;20460;-65
2023/10/23 05:08:42;;;;;;;10.03;4.30;;;8.20;29.00;;;;;;5066886;28;20466;-65
2023/10/23 05:11:10;;;;;;;7.27;4.30;;;8.10;29.30;;;;;;5060474;28;20974;-65
2023/10/23 05:13:36;;;;;;;7.97;4.33;;;8.10;29.40;;;;;;5067520;28;20536;-66
2023/10/23 05:16:04;;;;;;;8.00;4.60;;;8.10;29.50;;;;;;5067266;28;20484;-65
2023/10/23 05:18:31;;;;;;;7.27;4.40;;;8.10;29.50;;;;;;5066245;28;20461;-65
2023/10/23 05:20:57;;;;;;;6.73;4.23;;;8.10;29.20;;;;;;5060565;28;20950;-65
2023/10/23 05:23:24;;;;;;;8.07;4.70;;;8.10;29.10;;;;;;5062049;28;20458;-65
2023/10/23 05:25:52;;;;;;;8.33;5.03;;;8.00;29.00;;;;;;5059879;28;20465;-65
2023/10/23 05:28:19;;;;;;;6.63;4.00;;;8.00;28.90;;;;;;5069344;28;20468;-65
2023/10/23 05:30:46;;;;;;;10.60;5.07;;;8.00;28.80;;;;;;5061665;28;20457;-65
2023/10/23 05:33:12;;;;;;;11.07;6.17;;;8.00;28.70;;;;;;5071249;28;21112;-65
2023/10/23 05:35:39;;;;;;;7.10;5.17;;;8.00;28.60;;;;;;5063425;28;20484;-65
2023/10/23 05:38:05;;;;;;;7.20;5.13;;;8.00;28.80;;;;;;5067072;28;20465;-65
2023/10/23 05:40:32;;;;;;;7.30;4.10;;;8.00;28.90;;;;;;5069875;28;20457;-65
2023/10/23 05:43:00;;;;;;;10.70;3.73;;;8.00;29.60;;;;;;5063416;28;20810;-65
2023/10/23 05:45:27;;;;;;;7.80;4.00;;;8.00;29.70;;;;;;5069406;28;20481;-65
2023/10/23 05:47:54;;;;;;;6.37;4.20;;;8.00;29.60;;;;;;5068877;28;20461;-65
2023/10/23 05:50:20;;;;;;;6.00;4.20;;;8.00;29.60;;;;;;5069599;28;20460;-65
2023/10/23 05:52:47;;;;;;;6.00;4.60;;;8.10;29.70;;;;;;5065733;28;20833;-65
2023/10/23 05:55:14;;;;;;;7.43;4.87;;;8.00;29.40;;;;;;5067023;28;20481;-65
2023/10/23 05:57:41;;;;;;;9.20;5.37;;;8.00;29.50;;;;;;5065923;28;20496;-65
2023/10/23 06:00:09;;;;;;;7.03;4.73;;;8.00;29.60;;;;;;5068889;28;20457;-65
2023/10/23 06:02:36;;;;;;;7.87;5.10;;;8.00;29.20;;;;;;5041513;28;21069;-65
2023/10/23 06:05:03;;;;;;;6.30;4.40;;;8.00;29.30;;;;;;5050716;28;20485;-65
2023/10/23 06:07:30;;;;;;;6.93;3.90;;;8.10;29.10;;;;;;5050742;28;20817;-65
2023/10/23 06:09:58;;;;;;;8.10;4.43;;;8.10;29.40;;;;;;5049655;28;20458;-65
2023/10/23 06:12:25;;;;;;;8.20;4.73;;;8.10;29.30;;;;;;5048124;28;20465;-65
2023/10/23 06:14:52;;;;;;;9.10;4.97;;;8.10;29.10;;;;;;5045484;28;21008;-65
2023/10/23 06:17:20;;;;;;;6.50;4.10;;;8.20;28.80;;;;;;5049720;28;20482;-65
2023/10/23 06:19:47;;;;;;;6.83;4.43;;;8.20;28.70;;;;;;5047875;28;20455;-66
2023/10/23 06:22:14;;;;;;;9.40;5.23;;;8.30;28.50;;;;;;5050058;28;20461;-66
2023/10/23 06:24:40;;;;;;;9.00;4.97;;;8.30;28.30;;;;;;5050171;28;20986;-65
2023/10/23 06:27:07;;;;;;;9.97;4.90;;;8.40;28.00;;;;;;5049067;28;20458;-66
2023/10/23 06:29:33;;;;;;;8.03;4.83;;;8.40;27.70;;;;;;5044370;28;20458;-65
2023/10/23 06:32:00;;;;;;;9.80;4.73;;;8.50;27.80;;;;;;5046601;28;20484;-66
2023/10/23 06:34:28;;;;;;;11.37;5.53;;;8.50;27.70;;;;;;5046373;28;20908;-65
2023/10/23 06:36:56;;;;;;;12.73;4.87;;;8.50;27.80;;;;;;5051990;28;20477;-67
2023/10/23 06:39:23;;;;;;;14.20;4.70;;;8.50;27.60;;;;;;5055484;28;20450;-66
2023/10/23 06:41:50;;;;;;;8.10;3.63;;;8.60;27.50;;;;;;5046265;28;21119;-66
2023/10/23 06:44:17;;;;;;;13.00;4.13;;;8.70;27.50;;;;;;5048714;28;20517;-65
2023/10/23 06:46:44;;;;;;;16.83;4.27;;;8.80;27.10;;;;;;5042575;28;20457;-65
2023/10/23 06:49:11;;;;;;;10.43;4.73;;;8.80;27.60;;;;;;5050692;28;20458;-65
2023/10/23 06:51:39;;;;;;;20.23;4.13;;;8.90;26.90;;;;;;5047907;28;21131;-65
2023/10/23 06:54:06;;;;;;;16.80;3.60;;;9.10;26.70;;;;;;5039255;28;20525;-65
2023/10/23 06:56:32;;;;;;;18.00;3.60;;;9.20;26.30;;;;;;5043068;28;20482;-65
2023/10/23 06:58:59;;;;;;;12.63;3.27;;;9.30;26.00;;;;;;5046155;28;20462;-65
2023/10/23 07:01:26;;;;;;;11.90;3.73;;;9.40;25.60;;;;;;5047242;28;20840;-65
2023/10/23 07:03:52;;;;;;;7.53;3.10;;;9.60;24.60;;;;;;5044926;28;20458;-65
2023/10/23 07:06:19;;;;;;;18.33;3.50;;;9.70;24.20;;;;;;5049298;28;20458;-65
2023/10/23 07:08:47;;;;;;;19.80;3.07;;;9.70;23.30;;;;;;5044361;28;21180;-65
2023/10/23 07:11:15;;;;;;;12.30;3.23;;;9.60;23.30;;;;;;5039221;28;20459;-66
2023/10/23 07:13:41;;;;;;;16.07;3.80;;;9.60;23.30;;;;;;5042426;28;20461;-66
2023/10/23 07:16:09;;;;;;;18.93;3.33;;;9.60;22.90;;;;;;5047204;28;20463;-66
2023/10/23 07:18:35;;;;;;;8.47;3.30;;;9.60;22.90;;;;;;5043276;28;20454;-65
2023/10/23 07:21:02;;;;;;;5.30;3.20;;;9.60;22.80;;;;;;5042916;28;20463;-65
2023/10/23 07:23:29;;;;;;;32.03;3.97;;;9.70;23.00;;;;;;5049072;28;20512;-65
2023/10/23 07:26:07;;;;;;;10.60;3.90;;;9.70;23.00;;;;;;5048101;28;20482;-65
2023/10/23 07:28:35;;;;;;;10.77;3.37;;;9.80;23.00;;;;;;5041526;28;20458;-65
2023/10/23 07:31:03;;;;;;;15.57;3.77;;;10.00;23.00;;;;;;5046900;28;20469;-65
2023/10/23 07:33:30;;;;;;;6.47;3.93;;;10.10;22.60;;;;;;5042223;28;20532;-65
2023/10/23 07:36:04;;;;;;;9.73;3.83;;;10.30;22.80;;;;;;5050271;28;20487;-65
2023/10/23 07:38:32;;;;;;;5.93;3.50;;;10.40;21.90;;;;;;5047052;28;20459;-65
2023/10/23 07:40:59;;;;;;;6.20;3.83;;;10.40;21.90;;;;;;5051701;28;20528;-65
2023/10/23 07:43:28;;;;;;;10.87;4.40;;;10.50;21.90;;;;;;5047614;28;20555;-65
2023/10/23 07:45:55;;;;;;;7.53;3.40;;;10.50;22.20;;;;;;5045078;28;20481;-65
2023/10/23 07:48:22;;;;;;;12.30;3.90;;;10.60;22.20;;;;;;5047843;28;20468;-65
2023/10/23 07:50:49;;;;;;;11.07;3.50;;;10.80;21.80;;;;;;5053657;28;20461;-66
2023/10/23 07:53:16;;;;;;;7.13;3.90;;;11.00;21.40;;;;;;5046737;28;20454;-65
2023/10/23 07:55:43;;;;;;;7.80;3.80;;;11.10;21.20;;;;;;5045094;28;20497;-65
2023/10/23 07:58:10;;;;;;;6.33;3.90;;;11.20;20.50;;;;;;5048937;28;20513;-65
2023/10/23 08:00:38;;;;;;;12.10;4.07;;;11.50;20.30;;;;;;5048205;28;20481;-66
2023/10/23 08:03:05;;;;;;;6.17;4.23;;;11.90;20.20;;;;;;5048683;28;20461;-65
2023/10/23 08:05:31;;;;;;;7.13;5.00;;;12.50;19.20;;;;;;5046264;28;20482;-66
2023/10/23 08:07:58;;;;;;;8.50;5.27;;;12.70;17.90;;;;;;5048011;28;20446;-65
2023/10/23 08:10:25;;;;;;;7.27;4.33;;;12.70;17.30;;;;;;5051156;28;20461;-65
2023/10/23 08:12:52;;;;;;;6.30;3.90;;;12.90;16.60;;;;;;5052145;28;20452;-65
2023/10/23 08:15:18;;;;;;;5.87;3.77;;;13.00;16.00;;;;;;5049683;28;20470;-65
2023/10/23 08:17:46;;;;;;;5.70;3.63;;;13.10;15.80;;;;;;5052562;28;20474;-65
2023/10/23 08:20:13;;;;;;;5.10;3.60;;;13.20;15.70;;;;;;5047754;28;20465;-65
2023/10/23 08:22:40;;;;;;;6.57;3.93;;;13.20;15.70;;;;;;5052815;28;20465;-66
2023/10/23 08:25:07;;;;;;;8.80;4.77;;;13.20;15.20;;;;;;5052234;28;20938;-65
2023/10/23 08:27:34;;;;;;;11.10;4.67;;;13.30;15.20;;;;;;5050019;28;20457;-66
2023/10/23 08:30:01;;;;;;;8.80;4.67;;;13.40;14.70;;;;;;5048391;28;20461;-66
2023/10/23 08:32:28;;;;;;;7.87;4.60;;;13.40;14.90;;;;;;5045349;28;20474;-66
2023/10/23 08:34:56;;;;;;;7.47;5.30;;;13.40;14.80;;;;;;5045928;28;20524;-66
2023/10/23 08:37:23;;;;;;;7.37;4.70;;;13.30;14.90;;;;;;5045922;28;20482;-66
2023/10/23 08:39:49;;;;;;;7.43;4.70;;;13.40;15.30;;;;;;5047766;28;20469;-66
2023/10/23 08:42:16;;;;;;;8.77;6.13;;;13.60;15.30;;;;;;5048348;28;21335;-66
2023/10/23 08:44:44;;;;;;;6.40;4.40;;;13.70;15.10;;;;;;5042669;28;20474;-66
2023/10/23 08:47:11;;;;;;;7.40;4.40;;;14.20;14.80;;;;;;5045327;28;20450;-66
2023/10/23 08:49:38;;;;;;;9.77;5.63;;;15.00;13.70;;;;;;5047087;28;20477;-66
2023/10/23 08:52:10;;;;;;;8.40;5.17;;;15.70;11.40;;;;;;5041253;28;20466;-66
2023/10/23 08:54:37;;;;;;;7.17;4.90;;;15.90;10.40;;;;;;5042622;28;20492;-66
2023/10/23 08:57:05;;;;;;;10.30;5.20;;;15.70;10.60;;;;;;5041255;28;20489;-66
2023/10/23 08:59:32;;;;;;;7.47;5.20;;;15.60;10.60;;;;;;5047436;28;20462;-67
2023/10/23 09:01:59;;;;;;;9.37;5.37;;;15.50;11.30;;;;;;5043932;28;20549;-65
2023/10/23 09:04:25;;;;;;;6.90;5.10;;;15.40;11.40;;;;;;5044719;28;20473;-67
2023/10/23 09:06:55;;;;;;;7.80;6.37;;;15.30;11.50;;;;;;5047604;28;20458;-66
2023/10/23 09:09:24;;;;;;;7.50;5.33;;;15.10;11.80;;;;;;5046040;28;21157;-66
2023/10/23 09:11:51;;;;;;;6.90;5.50;;;14.90;12.10;;;;;;5043517;28;20461;-65
2023/10/23 09:14:25;;;;;;;7.77;5.80;;;14.70;12.40;;;;;;5039115;28;20567;-65
2023/10/23 09:16:53;;;;;;;9.20;6.93;;;14.50;13.30;;;;;;5044790;28;20532;-65
2023/10/23 09:19:27;;;;;;;7.87;6.43;;;14.40;13.00;;;;;;5043080;28;20469;-66
2023/10/23 09:21:56;;;;;;;7.50;5.87;;;14.30;13.60;;;;;;5044261;28;20456;-66
2023/10/23 09:24:24;;;;;;;8.70;6.03;;;14.30;13.80;;;;;;5043511;28;20485;-65
2023/10/23 09:26:51;;;;;;;7.70;6.10;;;14.30;13.70;;;;;;5046848;28;21089;-65
2023/10/23 09:29:22;;;;;;;7.90;5.73;;;14.20;13.90;;;;;;5051965;28;20464;-65
2023/10/23 09:31:49;;;;;;;7.00;5.07;;;14.10;14.30;;;;;;5053080;28;20604;-65
2023/10/23 09:34:18;;;;;;;10.33;6.23;;;14.00;14.60;;;;;;5046889;28;20487;-67
2023/10/23 09:36:45;;;;;;;8.00;6.03;;;13.80;15.00;;;;;;5054363;28;20506;-67
2023/10/23 09:39:12;;;;;;;7.73;5.83;;;13.80;15.20;;;;;;5052233;28;20485;-67
2023/10/23 09:41:41;;;;;;;6.70;4.80;;;13.70;15.50;;;;;;5050556;28;20458;-67
2023/10/23 09:44:08;;;;;;;7.67;5.63;;;13.70;15.70;;;;;;5049627;28;20481;-67
2023/10/23 09:46:36;;;;;;;7.80;6.53;;;13.70;15.80;;;;;;5049003;28;20454;-67
2023/10/23 09:49:04;;;;;;;8.70;6.03;;;13.70;16.10;;;;;;5049075;28;20458;-67
2023/10/23 09:51:36;;;;;;;10.07;6.50;;;13.60;16.40;;;;;;5051172;28;20458;-67
2023/10/23 09:54:11;;;;;;;7.90;6.00;;;13.60;16.70;;;;;;5050876;28;20480;-67
2023/10/23 09:56:42;;;;;;;9.73;6.80;;;13.60;17.00;;;;;;5051768;28;20454;-67
2023/10/23 09:59:11;;;;;;;9.80;6.50;;;13.50;17.10;;;;;;5049287;28;21185;-65
2023/10/23 10:01:41;;;;;;;7.90;7.07;;;13.50;17.30;;;;;;5040897;28;20475;-67
2023/10/23 10:04:13;;;;;;;9.10;6.37;;;13.40;17.40;;;;;;5051722;23;20539;-67
2023/10/23 10:06:45;;;;;;;9.80;7.00;;;13.40;17.60;;;;;;5048866;28;20547;-67
2023/10/23 10:09:13;;;;;;;8.30;6.60;;;13.40;17.90;;;;;;5048566;28;20454;-67
2023/10/23 10:11:43;;;;;;;9.93;6.97;;;13.40;17.80;;;;;;5048681;28;20466;-67
2023/10/23 10:14:11;;;;;;;8.10;6.70;;;13.70;18.10;;;;;;5043398;28;20483;-67
2023/10/23 10:16:39;;;;;;;8.20;6.90;;;13.80;17.70;;;;;;5034523;28;20517;-67
2023/10/23 10:19:07;;;;;;;8.83;7.10;;;13.90;17.40;;;;;;5029868;28;20482;-68
2023/10/23 10:21:48;;;;;;;10.77;6.90;;;14.10;17.20;;;;;;5040893;28;20470;-67
2023/10/23 10:24:15;;;;;;;8.00;6.60;;;14.50;17.30;;;;;;5038491;28;20492;-66
2023/10/23 10:26:43;;;;;;;10.23;6.33;;;15.40;16.10;;;;;;5031986;28;20454;-66
2023/10/23 10:29:10;;;;;;;7.87;5.80;;;16.70;13.70;;;;;;5032767;28;20446;-67
2023/10/23 10:32:06;;;;;;;8.40;5.47;;;17.60;11.30;;;;;;5034200;28;20463;-68
2023/10/23 10:34:34;;;;;;;8.03;5.63;;;18.00;9.70;;;;;;5026420;28;20486;-67
2023/10/23 10:37:04;;;;;;;7.00;5.40;;;18.10;8.90;;;;;;5034106;28;20467;-67
2023/10/23 10:40:08;;;;;;;7.23;6.13;;;18.50;8.60;;;;;;5029217;28;20524;-67
2023/10/23 10:42:42;;;;;;;8.30;5.50;;;19.10;7.80;;;;;;5036365;28;20487;-67
2023/10/23 10:45:14;;;;;;;6.90;5.30;;;19.80;6.10;;;;;;5035085;28;20482;-67
2023/10/23 10:47:43;;;;;;;9.13;5.23;;;20.20;5.70;;;;;;5021900;28;20471;-67
2023/10/23 10:50:10;;;;;;;7.13;5.13;;;20.60;4.20;;;;;;5024399;28;20475;-68
2023/10/23 10:52:38;;;;;;;9.73;5.30;;;20.50;3.90;;;;;;5024311;28;20470;-68
2023/10/23 10:55:05;;;;;;;8.50;6.23;;;20.30;3.60;;;;;;5024343;28;21037;-69
2023/10/23 10:57:34;;;;;;;6.73;5.47;;;19.90;4.50;;;;;;5020144;28;20498;-69
2023/10/23 11:00:03;;;;;;;6.80;5.33;;;19.60;4.50;;;;;;5026939;28;20466;-68
2023/10/23 11:02:30;;;;;;;7.93;6.10;;;19.40;4.90;;;;;;5023089;28;20487;-68
2023/10/23 11:04:56;;;;;;;6.67;5.63;;;19.20;5.20;;;;;;5026802;28;20842;-69
2023/10/23 11:07:25;;;;;;;9.40;6.50;;;18.90;5.50;;;;;;5024008;28;20459;-70
2023/10/23 11:09:52;;;;;;;7.10;5.83;;;18.60;6.00;;;;;;5021932;28;20471;-70
2023/10/23 11:12:19;;;;;;;7.10;5.70;;;18.30;6.60;;;;;;5021875;28;20464;-70
2023/10/23 11:14:48;;;;;;;6.43;5.63;;;18.00;7.50;;;;;;5020124;28;21021;-70
2023/10/23 11:17:16;;;;;;;7.87;5.60;;;17.70;8.20;;;;;;5026283;28;20463;-70
2023/10/23 11:19:43;;;;;;;9.63;5.57;;;17.40;8.80;;;;;;5025077;28;20459;-70
2023/10/23 11:22:12;;;;;;;13.20;5.70;;;17.20;9.60;;;;;;5025323;28;20983;-69
2023/10/23 11:24:39;;;;;;;7.13;5.83;;;17.00;10.10;;;;;;5026485;28;20514;-72
2023/10/23 11:27:07;;;;;;;11.23;6.80;;;16.90;10.60;;;;;;5024227;28;20462;-69
2023/10/23 11:29:41;;;;;;;9.50;5.97;;;16.70;11.00;;;;;;5018591;28;20485;-68
2023/10/23 11:32:08;;;;;;;7.20;5.97;;;16.60;11.50;;;;;;5017155;28;20482;-68
2023/10/23 11:34:38;;;;;;;8.57;6.27;;;16.50;11.80;;;;;;5002835;28;20488;-68
2023/10/23 11:37:06;;;;;;;12.27;6.43;;;16.40;12.10;;;;;;5000685;28;20483;-65
2023/10/23 11:39:33;;;;;;;9.13;5.77;;;16.20;12.60;;;;;;5002582;28;20496;-66
2023/10/23 11:42:00;;;;;;;8.50;6.90;;;16.10;13.20;;;;;;5006653;28;20482;-66
2023/10/23 11:44:28;;;;;;;9.07;7.57;;;16.00;13.80;;;;;;5002189;28;20499;-65
2023/10/23 11:46:55;;;;;;;9.20;7.00;;;15.90;14.20;;;;;;5007012;28;20474;-66
2023/10/23 11:49:23;;;;;;;9.20;7.20;;;15.70;14.60;;;;;;5008064;28;20470;-66
2023/10/23 11:51:51;;;;;;;9.30;7.10;;;15.60;14.90;;;;;;5008905;28;20471;-65
2023/10/23 11:54:19;;;;;;;8.93;7.10;;;15.50;15.40;;;;;;5003903;28;20489;-65
2023/10/23 11:56:46;;;;;;;11.03;7.27;;;15.40;15.60;;;;;;5011822;28;21042;-66
2023/10/23 11:59:17;;;;;;;8.33;6.60;;;15.40;15.90;;;;;;5011859;28;20487;-65
2023/10/23 12:01:44;;;;;;;10.73;7.20;;;15.40;16.10;;;;;;5013864;28;20840;-64
2023/10/23 12:04:11;;;;;;;9.97;7.27;;;15.40;16.30;;;;;;5023165;28;20490;-64
2023/10/23 12:06:38;;;;;;;10.07;7.37;;;15.30;16.30;;;;;;5024670;28;20448;-65
2023/10/23 12:09:09;;;;;;;17.73;8.17;;;15.40;16.60;;;;;;5026079;28;20456;-65
2023/10/23 12:11:36;;;;;;;8.37;6.60;;;15.40;16.50;;;;;;5020316;28;20464;-66
2023/10/23 12:14:04;;;;;;;7.63;6.63;;;15.50;16.40;;;;;;5025135;28;20892;-66
2023/10/23 12:16:31;;;;;;;11.10;7.43;;;15.60;16.40;;;;;;5019802;28;20467;-68
2023/10/23 12:18:58;;;;;;;9.70;6.90;;;15.70;16.30;;;;;;5025269;28;20489;-68
2023/10/23 12:21:25;;;;;;;15.40;6.30;;;15.90;16.00;;;;;;5025863;28;20468;-67
2023/10/23 12:23:52;;;;;;;9.30;7.03;;;16.00;15.40;;;;;;5021155;28;20464;-67
2023/10/23 12:26:21;;;;;;;8.37;5.87;;;16.10;15.40;;;;;;5024882;28;20471;-68
2023/10/23 12:28:48;;;;;;;8.50;6.30;;;16.10;15.40;;;;;;5027999;28;20514;-67
2023/10/23 12:31:14;;;;;;;8.33;6.50;;;16.10;15.20;;;;;;5018086;28;20476;-66
2023/10/23 12:33:42;;;;;;;7.80;6.00;;;15.90;15.30;;;;;;5007470;28;20499;-68
2023/10/23 12:36:09;;;;;;;9.23;6.30;;;15.80;15.20;;;;;;5013010;28;21019;-66
2023/10/23 12:38:36;;;;;;;9.40;6.73;;;15.80;15.30;;;;;;5006510;28;20490;-66
2023/10/23 12:41:03;;;;;;;7.63;6.70;;;15.80;15.50;;;;;;5007807;28;20459;-66
2023/10/23 12:43:31;;;;;;;8.80;6.40;;;15.80;15.70;;;;;;5003750;28;20484;-68
2023/10/23 12:45:57;;;;;;;9.23;6.17;;;15.80;15.80;;;;;;5002798;28;20491;-68
2023/10/23 12:48:24;;;;;;;9.47;6.90;;;15.80;16.00;;;;;;5003222;28;20475;-67
2023/10/23 12:50:51;;;;;;;9.17;6.53;;;15.70;16.00;;;;;;5001043;28;21060;-67
2023/10/23 12:53:18;;;;;;;9.13;6.23;;;15.70;16.10;;;;;;4999324;28;20472;-67